sensor_id;sensor_type;location;lat;lon;timestamp;P1;durP1;ratioP1;P2;durP2;ratioP2
76208;SDS011;64990;51.698;-0.292;2023-01-19T00:01:11;7.70;;;2.75;;
76208;SDS011;64990;51.698;-0.292;2023-01-19T00:03:37;9.35;;;3.85;;
76208;SDS011;64990;51.698;-0.292;2023-01-19T00:06:04;6.75;;;3.85;;
76208;SDS011;64990;51.698;-0.292;2023-01-19T00:08:30;6.63;;;3.30;;
76208;SDS011;64990;51.698;-0.292;2023-01-19T00:10:56;21.15;;;4.75;;
76208;SDS011;64990;51.698;-0.292;2023-01-19T00:13:22;20.90;;;3.40;;
76208;SDS011;64990;51.698;-0.292;2023-01-19T00:15:48;8.95;;;3.30;;
76208;SDS011;64990;51.698;-0.292;2023-01-19T00:18:14;10.65;;;4.55;;
76208;SDS011;64990;51.698;-0.292;2023-01-19T00:20:40;18.35;;;3.58;;
76208;SDS011;64990;51.698;-0.292;2023-01-19T00:23:06;13.90;;;4.50;;
76208;SDS011;64990;51.698;-0.292;2023-01-19T00:25:33;9.90;;;4.28;;
76208;SDS011;64990;51.698;-0.292;2023-01-19T00:27:59;9.93;;;4.20;;
76208;SDS011;64990;51.698;-0.292;2023-01-19T00:30:25;13.63;;;4.13;;
76208;SDS011;64990;51.698;-0.292;2023-01-19T00:32:51;15.93;;;4.78;;
76208;SDS011;64990;51.698;-0.292;2023-01-19T00:35:17;10.13;;;3.30;;
76208;SDS011;64990;51.698;-0.292;2023-01-19T00:37:43;8.85;;;3.10;;
76208;SDS011;64990;51.698;-0.292;2023-01-19T00:40:10;8.57;;;4.32;;
76208;SDS011;64990;51.698;-0.292;2023-01-19T00:42:37;19.27;;;8.18;;
76208;SDS011;64990;51.698;-0.292;2023-01-19T00:45:11;13.77;;;4.18;;
76208;SDS011;64990;51.698;-0.292;2023-01-19T00:47:38;15.00;;;4.72;;
76208;SDS011;64990;51.698;-0.292;2023-01-19T00:50:05;10.15;;;4.28;;
76208;SDS011;64990;51.698;-0.292;2023-01-19T00:52:31;7.88;;;3.40;;
76208;SDS011;64990;51.698;-0.292;2023-01-19T00:54:57;13.27;;;4.40;;
76208;SDS011;64990;51.698;-0.292;2023-01-19T00:57:23;9.52;;;3.53;;
76208;SDS011;64990;51.698;-0.292;2023-01-19T00:59:51;14.52;;;3.97;;
76208;SDS011;64990;51.698;-0.292;2023-01-19T01:02:17;7.88;;;3.30;;
76208;SDS011;64990;51.698;-0.292;2023-01-19T01:04:43;4.85;;;3.88;;
76208;SDS011;64990;51.698;-0.292;2023-01-19T01:07:09;11.70;;;3.92;;
76208;SDS011;64990;51.698;-0.292;2023-01-19T01:09:35;12.40;;;3.05;;
76208;SDS011;64990;51.698;-0.292;2023-01-19T01:12:01;7.65;;;3.25;;
76208;SDS011;64990;51.698;-0.292;2023-01-19T01:14:27;8.18;;;3.20;;
76208;SDS011;64990;51.698;-0.292;2023-01-19T01:16:53;12.50;;;2.92;;
76208;SDS011;64990;51.698;-0.292;2023-01-19T01:19:19;8.50;;;2.88;;
76208;SDS011;64990;51.698;-0.292;2023-01-19T01:21:45;9.00;;;3.15;;
76208;SDS011;64990;51.698;-0.292;2023-01-19T01:24:11;8.98;;;4.20;;
76208;SDS011;64990;51.698;-0.292;2023-01-19T01:26:37;7.97;;;3.63;;
76208;SDS011;64990;51.698;-0.292;2023-01-19T01:29:04;6.35;;;2.50;;
76208;SDS011;64990;51.698;-0.292;2023-01-19T01:31:30;6.10;;;2.72;;
76208;SDS011;64990;51.698;-0.292;2023-01-19T01:33:56;10.27;;;3.85;;
76208;SDS011;64990;51.698;-0.292;2023-01-19T01:36:22;7.78;;;3.55;;
76208;SDS011;64990;51.698;-0.292;2023-01-19T01:38:48;6.20;;;2.88;;
76208;SDS011;64990;51.698;-0.292;2023-01-19T01:41:15;8.43;;;3.55;;
76208;SDS011;64990;51.698;-0.292;2023-01-19T01:43:51;8.27;;;2.92;;
76208;SDS011;64990;51.698;-0.292;2023-01-19T01:46:20;11.27;;;4.07;;
76208;SDS011;64990;51.698;-0.292;2023-01-19T01:49:06;7.68;;;4.43;;
76208;SDS011;64990;51.698;-0.292;2023-01-19T01:56:31;11.13;;;2.92;;
76208;SDS011;64990;51.698;-0.292;2023-01-19T01:58:57;5.35;;;3.28;;
76208;SDS011;64990;51.698;-0.292;2023-01-19T02:01:24;11.50;;;3.92;;
76208;SDS011;64990;51.698;-0.292;2023-01-19T02:04:08;9.20;;;3.42;;
76208;SDS011;64990;51.698;-0.292;2023-01-19T02:06:35;7.85;;;3.67;;
76208;SDS011;64990;51.698;-0.292;2023-01-19T02:09:19;13.57;;;4.47;;
76208;SDS011;64990;51.698;-0.292;2023-01-19T02:12:05;10.38;;;4.22;;
76208;SDS011;64990;51.698;-0.292;2023-01-19T02:14:50;17.08;;;3.33;;
76208;SDS011;64990;51.698;-0.292;2023-01-19T02:17:16;7.60;;;3.03;;
76208;SDS011;64990;51.698;-0.292;2023-01-19T02:19:42;16.67;;;5.10;;
76208;SDS011;64990;51.698;-0.292;2023-01-19T02:22:19;14.07;;;3.25;;
76208;SDS011;64990;51.698;-0.292;2023-01-19T02:24:48;9.60;;;3.67;;
76208;SDS011;64990;51.698;-0.292;2023-01-19T02:27:14;10.10;;;3.75;;
76208;SDS011;64990;51.698;-0.292;2023-01-19T02:29:40;9.00;;;4.38;;
76208;SDS011;64990;51.698;-0.292;2023-01-19T02:32:06;15.55;;;4.63;;
76208;SDS011;64990;51.698;-0.292;2023-01-19T02:34:33;6.40;;;4.30;;
76208;SDS011;64990;51.698;-0.292;2023-01-19T02:37:06;7.22;;;3.55;;
76208;SDS011;64990;51.698;-0.292;2023-01-19T02:39:37;5.60;;;3.53;;
76208;SDS011;64990;51.698;-0.292;2023-01-19T02:42:14;9.43;;;2.95;;
76208;SDS011;64990;51.698;-0.292;2023-01-19T02:44:42;7.70;;;3.88;;
76208;SDS011;64990;51.698;-0.292;2023-01-19T02:47:09;6.20;;;3.70;;
76208;SDS011;64990;51.698;-0.292;2023-01-19T02:49:35;10.85;;;3.15;;
76208;SDS011;64990;51.698;-0.292;2023-01-19T02:52:01;8.80;;;3.08;;
76208;SDS011;64990;51.698;-0.292;2023-01-19T02:57:11;8.85;;;3.03;;
76208;SDS011;64990;51.698;-0.292;2023-01-19T03:13:09;10.32;;;3.47;;
76208;SDS011;64990;51.698;-0.292;2023-01-19T03:15:43;6.00;;;3.47;;
76208;SDS011;64990;51.698;-0.292;2023-01-19T03:18:12;15.35;;;3.65;;
76208;SDS011;64990;51.698;-0.292;2023-01-19T03:20:39;6.20;;;4.15;;
76208;SDS011;64990;51.698;-0.292;2023-01-19T03:23:07;11.75;;;4.18;;
76208;SDS011;64990;51.698;-0.292;2023-01-19T03:25:35;15.48;;;3.83;;
76208;SDS011;64990;51.698;-0.292;2023-01-19T03:28:02;8.55;;;4.38;;
76208;SDS011;64990;51.698;-0.292;2023-01-19T03:30:36;13.48;;;3.85;;
76208;SDS011;64990;51.698;-0.292;2023-01-19T03:33:06;8.38;;;3.83;;
76208;SDS011;64990;51.698;-0.292;2023-01-19T03:35:33;14.85;;;4.28;;
76208;SDS011;64990;51.698;-0.292;2023-01-19T03:38:01;9.93;;;3.15;;
76208;SDS011;64990;51.698;-0.292;2023-01-19T03:40:29;7.57;;;4.88;;
76208;SDS011;64990;51.698;-0.292;2023-01-19T03:42:55;16.17;;;4.45;;
76208;SDS011;64990;51.698;-0.292;2023-01-19T03:45:21;10.02;;;3.55;;
76208;SDS011;64990;51.698;-0.292;2023-01-19T03:47:48;6.57;;;3.53;;
76208;SDS011;64990;51.698;-0.292;2023-01-19T03:50:17;7.35;;;3.65;;
76208;SDS011;64990;51.698;-0.292;2023-01-19T03:52:46;13.85;;;3.60;;
76208;SDS011;64990;51.698;-0.292;2023-01-19T03:55:24;14.65;;;4.63;;
76208;SDS011;64990;51.698;-0.292;2023-01-19T03:57:50;7.72;;;3.85;;
76208;SDS011;64990;51.698;-0.292;2023-01-19T04:00:16;9.18;;;3.72;;
76208;SDS011;64990;51.698;-0.292;2023-01-19T04:02:42;10.75;;;4.05;;
76208;SDS011;64990;51.698;-0.292;2023-01-19T04:05:08;7.40;;;3.78;;
76208;SDS011;64990;51.698;-0.292;2023-01-19T04:07:34;4.47;;;3.45;;
76208;SDS011;64990;51.698;-0.292;2023-01-19T04:10:00;7.65;;;3.72;;
76208;SDS011;64990;51.698;-0.292;2023-01-19T04:12:26;9.15;;;3.72;;
76208;SDS011;64990;51.698;-0.292;2023-01-19T04:14:52;9.07;;;4.15;;
76208;SDS011;64990;51.698;-0.292;2023-01-19T04:17:18;11.13;;;3.35;;
76208;SDS011;64990;51.698;-0.292;2023-01-19T04:19:44;4.65;;;2.85;;
76208;SDS011;64990;51.698;-0.292;2023-01-19T04:22:10;9.13;;;5.20;;
76208;SDS011;64990;51.698;-0.292;2023-01-19T04:24:36;10.85;;;4.18;;
76208;SDS011;64990;51.698;-0.292;2023-01-19T04:27:02;9.45;;;3.45;;
76208;SDS011;64990;51.698;-0.292;2023-01-19T04:29:28;15.40;;;4.07;;
76208;SDS011;64990;51.698;-0.292;2023-01-19T04:31:54;7.25;;;3.40;;
76208;SDS011;64990;51.698;-0.292;2023-01-19T04:34:20;9.85;;;4.18;;
76208;SDS011;64990;51.698;-0.292;2023-01-19T04:36:46;8.13;;;3.85;;
76208;SDS011;64990;51.698;-0.292;2023-01-19T04:39:15;19.38;;;4.07;;
76208;SDS011;64990;51.698;-0.292;2023-01-19T04:41:41;11.60;;;4.22;;
76208;SDS011;64990;51.698;-0.292;2023-01-19T04:44:07;6.03;;;3.72;;
76208;SDS011;64990;51.698;-0.292;2023-01-19T04:46:33;7.57;;;3.63;;
76208;SDS011;64990;51.698;-0.292;2023-01-19T04:48:59;10.63;;;3.35;;
76208;SDS011;64990;51.698;-0.292;2023-01-19T04:51:25;12.15;;;5.35;;
76208;SDS011;64990;51.698;-0.292;2023-01-19T04:53:52;6.30;;;2.78;;
76208;SDS011;64990;51.698;-0.292;2023-01-19T04:56:18;6.93;;;3.78;;
76208;SDS011;64990;51.698;-0.292;2023-01-19T04:58:44;8.52;;;4.07;;
76208;SDS011;64990;51.698;-0.292;2023-01-19T05:01:10;11.40;;;3.72;;
76208;SDS011;64990;51.698;-0.292;2023-01-19T05:03:36;8.38;;;3.65;;
76208;SDS011;64990;51.698;-0.292;2023-01-19T05:06:02;15.00;;;5.88;;
76208;SDS011;64990;51.698;-0.292;2023-01-19T05:08:28;10.50;;;3.83;;
76208;SDS011;64990;51.698;-0.292;2023-01-19T05:10:55;7.40;;;3.63;;
76208;SDS011;64990;51.698;-0.292;2023-01-19T05:13:21;12.52;;;3.75;;
76208;SDS011;64990;51.698;-0.292;2023-01-19T05:15:47;16.02;;;5.07;;
76208;SDS011;64990;51.698;-0.292;2023-01-19T05:18:14;21.63;;;5.47;;
76208;SDS011;64990;51.698;-0.292;2023-01-19T05:20:40;25.40;;;5.13;;
76208;SDS011;64990;51.698;-0.292;2023-01-19T05:23:06;7.78;;;4.60;;
76208;SDS011;64990;51.698;-0.292;2023-01-19T05:25:32;30.27;;;5.50;;
76208;SDS011;64990;51.698;-0.292;2023-01-19T05:27:58;14.00;;;3.78;;
76208;SDS011;64990;51.698;-0.292;2023-01-19T05:30:24;12.30;;;4.32;;
76208;SDS011;64990;51.698;-0.292;2023-01-19T05:32:50;15.18;;;6.35;;
76208;SDS011;64990;51.698;-0.292;2023-01-19T05:35:16;16.08;;;4.88;;
76208;SDS011;64990;51.698;-0.292;2023-01-19T05:37:42;8.52;;;3.45;;
76208;SDS011;64990;51.698;-0.292;2023-01-19T05:40:08;6.78;;;3.65;;
76208;SDS011;64990;51.698;-0.292;2023-01-19T05:42:35;19.63;;;3.25;;
76208;SDS011;64990;51.698;-0.292;2023-01-19T05:45:01;14.00;;;4.10;;
76208;SDS011;64990;51.698;-0.292;2023-01-19T05:47:28;12.60;;;3.95;;
76208;SDS011;64990;51.698;-0.292;2023-01-19T05:49:54;17.52;;;3.70;;
76208;SDS011;64990;51.698;-0.292;2023-01-19T05:52:20;9.35;;;3.97;;
76208;SDS011;64990;51.698;-0.292;2023-01-19T05:54:46;8.82;;;4.15;;
76208;SDS011;64990;51.698;-0.292;2023-01-19T05:57:13;12.95;;;4.15;;
76208;SDS011;64990;51.698;-0.292;2023-01-19T05:59:39;11.63;;;4.90;;
76208;SDS011;64990;51.698;-0.292;2023-01-19T06:02:05;11.38;;;3.97;;
76208;SDS011;64990;51.698;-0.292;2023-01-19T06:04:31;15.68;;;3.95;;
76208;SDS011;64990;51.698;-0.292;2023-01-19T06:06:57;15.57;;;6.47;;
76208;SDS011;64990;51.698;-0.292;2023-01-19T06:09:23;8.15;;;4.32;;
76208;SDS011;64990;51.698;-0.292;2023-01-19T06:11:49;8.18;;;5.30;;
76208;SDS011;64990;51.698;-0.292;2023-01-19T06:14:18;22.13;;;4.68;;
76208;SDS011;64990;51.698;-0.292;2023-01-19T06:16:44;8.55;;;4.55;;
76208;SDS011;64990;51.698;-0.292;2023-01-19T06:19:10;19.08;;;6.97;;
76208;SDS011;64990;51.698;-0.292;2023-01-19T06:21:36;12.02;;;4.90;;
76208;SDS011;64990;51.698;-0.292;2023-01-19T06:24:02;16.20;;;6.65;;
76208;SDS011;64990;51.698;-0.292;2023-01-19T06:26:28;18.70;;;4.72;;
76208;SDS011;64990;51.698;-0.292;2023-01-19T06:28:54;20.40;;;6.40;;
76208;SDS011;64990;51.698;-0.292;2023-01-19T06:31:20;18.45;;;6.18;;
76208;SDS011;64990;51.698;-0.292;2023-01-19T06:33:46;8.05;;;3.97;;
76208;SDS011;64990;51.698;-0.292;2023-01-19T06:36:12;18.52;;;4.72;;
76208;SDS011;64990;51.698;-0.292;2023-01-19T06:38:38;13.73;;;4.28;;
76208;SDS011;64990;51.698;-0.292;2023-01-19T06:41:04;14.23;;;5.30;;
76208;SDS011;64990;51.698;-0.292;2023-01-19T06:43:30;9.95;;;5.32;;
76208;SDS011;64990;51.698;-0.292;2023-01-19T06:46:00;14.00;;;4.35;;
76208;SDS011;64990;51.698;-0.292;2023-01-19T06:48:26;16.80;;;5.97;;
76208;SDS011;64990;51.698;-0.292;2023-01-19T06:50:52;11.80;;;5.57;;
76208;SDS011;64990;51.698;-0.292;2023-01-19T06:53:18;12.98;;;4.75;;
76208;SDS011;64990;51.698;-0.292;2023-01-19T06:55:46;7.15;;;4.25;;
76208;SDS011;64990;51.698;-0.292;2023-01-19T06:58:12;12.88;;;4.72;;
76208;SDS011;64990;51.698;-0.292;2023-01-19T07:00:38;16.05;;;5.10;;
76208;SDS011;64990;51.698;-0.292;2023-01-19T07:03:05;9.32;;;4.05;;
76208;SDS011;64990;51.698;-0.292;2023-01-19T07:05:32;14.80;;;5.25;;
76208;SDS011;64990;51.698;-0.292;2023-01-19T07:07:59;12.30;;;6.03;;
76208;SDS011;64990;51.698;-0.292;2023-01-19T07:10:25;9.93;;;5.00;;
76208;SDS011;64990;51.698;-0.292;2023-01-19T07:12:51;12.02;;;3.50;;
76208;SDS011;64990;51.698;-0.292;2023-01-19T07:15:17;11.95;;;4.70;;
76208;SDS011;64990;51.698;-0.292;2023-01-19T07:17:44;16.73;;;5.63;;
76208;SDS011;64990;51.698;-0.292;2023-01-19T07:20:11;13.98;;;5.38;;
76208;SDS011;64990;51.698;-0.292;2023-01-19T07:22:38;12.65;;;4.38;;
76208;SDS011;64990;51.698;-0.292;2023-01-19T07:25:05;10.80;;;4.05;;
76208;SDS011;64990;51.698;-0.292;2023-01-19T07:27:31;11.68;;;4.38;;
76208;SDS011;64990;51.698;-0.292;2023-01-19T07:29:57;16.65;;;6.38;;
76208;SDS011;64990;51.698;-0.292;2023-01-19T07:32:25;15.10;;;4.93;;
76208;SDS011;64990;51.698;-0.292;2023-01-19T07:34:51;7.35;;;4.60;;
76208;SDS011;64990;51.698;-0.292;2023-01-19T07:37:17;63.80;;;5.82;;
76208;SDS011;64990;51.698;-0.292;2023-01-19T07:39:43;19.95;;;4.00;;
76208;SDS011;64990;51.698;-0.292;2023-01-19T07:42:09;8.38;;;3.17;;
76208;SDS011;64990;51.698;-0.292;2023-01-19T07:44:36;10.40;;;4.15;;
76208;SDS011;64990;51.698;-0.292;2023-01-19T07:47:02;12.20;;;3.55;;
76208;SDS011;64990;51.698;-0.292;2023-01-19T07:49:31;9.85;;;4.40;;
76208;SDS011;64990;51.698;-0.292;2023-01-19T07:51:57;9.48;;;4.07;;
76208;SDS011;64990;51.698;-0.292;2023-01-19T07:54:23;10.00;;;3.10;;
76208;SDS011;64990;51.698;-0.292;2023-01-19T07:56:52;7.88;;;4.18;;
76208;SDS011;64990;51.698;-0.292;2023-01-19T07:59:18;7.45;;;3.10;;
76208;SDS011;64990;51.698;-0.292;2023-01-19T08:01:44;23.33;;;6.30;;
76208;SDS011;64990;51.698;-0.292;2023-01-19T08:04:10;6.78;;;3.63;;
76208;SDS011;64990;51.698;-0.292;2023-01-19T08:06:37;8.88;;;4.57;;
76208;SDS011;64990;51.698;-0.292;2023-01-19T08:09:04;9.05;;;3.90;;
76208;SDS011;64990;51.698;-0.292;2023-01-19T08:11:30;10.98;;;3.35;;
76208;SDS011;64990;51.698;-0.292;2023-01-19T08:13:56;11.68;;;3.33;;
76208;SDS011;64990;51.698;-0.292;2023-01-19T08:16:22;9.50;;;4.82;;
76208;SDS011;64990;51.698;-0.292;2023-01-19T08:18:49;6.30;;;3.97;;
76208;SDS011;64990;51.698;-0.292;2023-01-19T08:21:15;14.55;;;5.63;;
76208;SDS011;64990;51.698;-0.292;2023-01-19T08:23:41;10.00;;;4.40;;
76208;SDS011;64990;51.698;-0.292;2023-01-19T08:26:19;15.23;;;4.63;;
76208;SDS011;64990;51.698;-0.292;2023-01-19T08:28:47;8.85;;;4.20;;
76208;SDS011;64990;51.698;-0.292;2023-01-19T08:31:13;6.40;;;3.90;;
76208;SDS011;64990;51.698;-0.292;2023-01-19T08:33:39;16.85;;;5.43;;
76208;SDS011;64990;51.698;-0.292;2023-01-19T08:36:07;10.50;;;4.05;;
76208;SDS011;64990;51.698;-0.292;2023-01-19T08:38:33;7.63;;;3.80;;
76208;SDS011;64990;51.698;-0.292;2023-01-19T08:40:59;10.63;;;5.00;;
76208;SDS011;64990;51.698;-0.292;2023-01-19T08:43:25;12.75;;;4.30;;
76208;SDS011;64990;51.698;-0.292;2023-01-19T08:45:51;11.05;;;5.75;;
76208;SDS011;64990;51.698;-0.292;2023-01-19T08:48:19;16.35;;;4.47;;
76208;SDS011;64990;51.698;-0.292;2023-01-19T08:50:46;23.45;;;4.38;;
76208;SDS011;64990;51.698;-0.292;2023-01-19T08:53:13;9.13;;;4.38;;
76208;SDS011;64990;51.698;-0.292;2023-01-19T08:55:39;22.42;;;5.75;;
76208;SDS011;64990;51.698;-0.292;2023-01-19T08:58:05;12.52;;;4.15;;
76208;SDS011;64990;51.698;-0.292;2023-01-19T09:00:33;13.18;;;5.30;;
76208;SDS011;64990;51.698;-0.292;2023-01-19T09:02:59;8.38;;;4.43;;
76208;SDS011;64990;51.698;-0.292;2023-01-19T09:05:27;10.93;;;4.53;;
76208;SDS011;64990;51.698;-0.292;2023-01-19T09:07:53;8.82;;;4.95;;
76208;SDS011;64990;51.698;-0.292;2023-01-19T09:10:19;13.15;;;4.75;;
76208;SDS011;64990;51.698;-0.292;2023-01-19T09:12:45;10.27;;;5.25;;
76208;SDS011;64990;51.698;-0.292;2023-01-19T09:15:11;14.13;;;4.63;;
76208;SDS011;64990;51.698;-0.292;2023-01-19T09:17:38;20.75;;;5.18;;
76208;SDS011;64990;51.698;-0.292;2023-01-19T09:20:05;15.68;;;5.25;;
76208;SDS011;64990;51.698;-0.292;2023-01-19T09:22:31;21.80;;;7.55;;
76208;SDS011;64990;51.698;-0.292;2023-01-19T09:24:58;17.73;;;7.20;;
76208;SDS011;64990;51.698;-0.292;2023-01-19T09:27:24;11.80;;;5.90;;
76208;SDS011;64990;51.698;-0.292;2023-01-19T09:29:50;24.00;;;7.45;;
76208;SDS011;64990;51.698;-0.292;2023-01-19T09:32:18;15.68;;;5.40;;
76208;SDS011;64990;51.698;-0.292;2023-01-19T09:34:44;15.35;;;6.43;;
76208;SDS011;64990;51.698;-0.292;2023-01-19T09:37:10;10.18;;;5.18;;
76208;SDS011;64990;51.698;-0.292;2023-01-19T09:39:36;13.77;;;6.90;;
76208;SDS011;64990;51.698;-0.292;2023-01-19T09:44:32;12.75;;;6.32;;
76208;SDS011;64990;51.698;-0.292;2023-01-19T09:47:00;12.13;;;6.57;;
76208;SDS011;64990;51.698;-0.292;2023-01-19T09:49:33;11.93;;;4.70;;
76208;SDS011;64990;51.698;-0.292;2023-01-19T09:54:30;13.75;;;6.00;;
76208;SDS011;64990;51.698;-0.292;2023-01-19T09:57:00;10.93;;;5.40;;
76208;SDS011;64990;51.698;-0.292;2023-01-19T09:59:34;8.55;;;4.95;;
76208;SDS011;64990;51.698;-0.292;2023-01-19T10:09:47;12.30;;;5.75;;
76208;SDS011;64990;51.698;-0.292;2023-01-19T10:14:44;16.92;;;6.18;;
76208;SDS011;64990;51.698;-0.292;2023-01-19T10:19:46;11.38;;;6.13;;
76208;SDS011;64990;51.698;-0.292;2023-01-19T10:22:20;11.68;;;4.97;;
76208;SDS011;64990;51.698;-0.292;2023-01-19T10:24:47;9.50;;;5.32;;
76208;SDS011;64990;51.698;-0.292;2023-01-19T10:27:15;16.75;;;5.85;;
76208;SDS011;64990;51.698;-0.292;2023-01-19T10:29:42;14.15;;;5.03;;
76208;SDS011;64990;51.698;-0.292;2023-01-19T10:32:16;9.35;;;5.75;;
76208;SDS011;64990;51.698;-0.292;2023-01-19T10:34:44;13.63;;;6.22;;
76208;SDS011;64990;51.698;-0.292;2023-01-19T10:39:46;17.30;;;6.45;;
76208;SDS011;64990;51.698;-0.292;2023-01-19T10:42:16;6.85;;;4.35;;
76208;SDS011;64990;51.698;-0.292;2023-01-19T10:44:43;13.80;;;5.85;;
76208;SDS011;64990;51.698;-0.292;2023-01-19T10:47:14;16.30;;;6.10;;
76208;SDS011;64990;51.698;-0.292;2023-01-19T10:49:41;14.73;;;5.60;;
76208;SDS011;64990;51.698;-0.292;2023-01-19T10:52:16;12.00;;;5.57;;
76208;SDS011;64990;51.698;-0.292;2023-01-19T10:54:43;16.58;;;5.63;;
76208;SDS011;64990;51.698;-0.292;2023-01-19T10:57:12;18.13;;;6.07;;
76208;SDS011;64990;51.698;-0.292;2023-01-19T11:04:39;15.80;;;6.00;;
76208;SDS011;64990;51.698;-0.292;2023-01-19T11:07:19;10.88;;;5.43;;
76208;SDS011;64990;51.698;-0.292;2023-01-19T11:09:46;13.73;;;6.47;;
76208;SDS011;64990;51.698;-0.292;2023-01-19T11:12:16;29.42;;;6.15;;
76208;SDS011;64990;51.698;-0.292;2023-01-19T11:14:43;14.10;;;6.18;;
76208;SDS011;64990;51.698;-0.292;2023-01-19T11:17:19;16.05;;;6.18;;
76208;SDS011;64990;51.698;-0.292;2023-01-19T11:19:57;22.13;;;7.45;;
76208;SDS011;64990;51.698;-0.292;2023-01-19T11:22:28;16.75;;;7.38;;
76208;SDS011;64990;51.698;-0.292;2023-01-19T11:25:01;15.68;;;7.47;;
76208;SDS011;64990;51.698;-0.292;2023-01-19T11:27:29;36.47;;;7.70;;
76208;SDS011;64990;51.698;-0.292;2023-01-19T11:32:26;12.00;;;7.28;;
76208;SDS011;64990;51.698;-0.292;2023-01-19T11:34:52;27.80;;;7.60;;
76208;SDS011;64990;51.698;-0.292;2023-01-19T11:39:45;11.38;;;5.00;;
76208;SDS011;64990;51.698;-0.292;2023-01-19T11:42:12;12.52;;;5.20;;
76208;SDS011;64990;51.698;-0.292;2023-01-19T11:44:42;19.33;;;6.28;;
76208;SDS011;64990;51.698;-0.292;2023-01-19T11:47:26;15.20;;;5.95;;
76208;SDS011;64990;51.698;-0.292;2023-01-19T11:50:11;15.18;;;6.85;;
76208;SDS011;64990;51.698;-0.292;2023-01-19T11:52:42;12.70;;;5.90;;
76208;SDS011;64990;51.698;-0.292;2023-01-19T11:57:55;18.25;;;7.28;;
76208;SDS011;64990;51.698;-0.292;2023-01-19T12:00:25;12.68;;;5.20;;
76208;SDS011;64990;51.698;-0.292;2023-01-19T12:03:36;14.77;;;4.97;;
76208;SDS011;64990;51.698;-0.292;2023-01-19T12:05:43;23.55;;;5.88;;
76208;SDS011;64990;51.698;-0.292;2023-01-19T12:08:17;16.77;;;5.80;;
76208;SDS011;64990;51.698;-0.292;2023-01-19T12:10:44;27.15;;;7.38;;
76208;SDS011;64990;51.698;-0.292;2023-01-19T12:13:18;20.25;;;5.75;;
76208;SDS011;64990;51.698;-0.292;2023-01-19T12:15:45;14.32;;;4.57;;
76208;SDS011;64990;51.698;-0.292;2023-01-19T12:18:20;14.75;;;5.25;;
76208;SDS011;64990;51.698;-0.292;2023-01-19T12:21:00;15.50;;;6.70;;
76208;SDS011;64990;51.698;-0.292;2023-01-19T12:23:43;25.17;;;8.52;;
76208;SDS011;64990;51.698;-0.292;2023-01-19T12:28:42;32.70;;;6.95;;
76208;SDS011;64990;51.698;-0.292;2023-01-19T12:31:09;15.27;;;4.03;;
76208;SDS011;64990;51.698;-0.292;2023-01-19T12:33:39;13.82;;;4.00;;
76208;SDS011;64990;51.698;-0.292;2023-01-19T12:43:42;6.82;;;3.25;;
76208;SDS011;64990;51.698;-0.292;2023-01-19T12:46:28;9.65;;;3.42;;
76208;SDS011;64990;51.698;-0.292;2023-01-19T12:48:54;7.57;;;3.80;;
76208;SDS011;64990;51.698;-0.292;2023-01-19T12:51:28;16.70;;;3.20;;
76208;SDS011;64990;51.698;-0.292;2023-01-19T12:53:55;7.53;;;3.70;;
76208;SDS011;64990;51.698;-0.292;2023-01-19T12:56:40;9.27;;;2.88;;
76208;SDS011;64990;51.698;-0.292;2023-01-19T12:59:06;18.73;;;3.42;;
76208;SDS011;64990;51.698;-0.292;2023-01-19T13:01:32;8.00;;;3.05;;
76208;SDS011;64990;51.698;-0.292;2023-01-19T13:09:28;6.93;;;2.15;;
76208;SDS011;64990;51.698;-0.292;2023-01-19T13:12:10;5.22;;;2.10;;
76208;SDS011;64990;51.698;-0.292;2023-01-19T13:14:44;12.10;;;2.50;;
76208;SDS011;64990;51.698;-0.292;2023-01-19T13:19:51;8.65;;;2.65;;
76208;SDS011;64990;51.698;-0.292;2023-01-19T13:25:05;8.65;;;3.28;;
76208;SDS011;64990;51.698;-0.292;2023-01-19T13:27:33;11.25;;;2.25;;
76208;SDS011;64990;51.698;-0.292;2023-01-19T13:30:00;6.72;;;3.08;;
76208;SDS011;64990;51.698;-0.292;2023-01-19T13:32:26;12.25;;;3.00;;
76208;SDS011;64990;51.698;-0.292;2023-01-19T13:34:55;8.43;;;2.58;;
76208;SDS011;64990;51.698;-0.292;2023-01-19T13:37:34;7.50;;;2.20;;
76208;SDS011;64990;51.698;-0.292;2023-01-19T13:40:01;18.73;;;4.38;;
76208;SDS011;64990;51.698;-0.292;2023-01-19T13:42:29;12.27;;;2.78;;
76208;SDS011;64990;51.698;-0.292;2023-01-19T13:44:57;9.80;;;2.88;;
76208;SDS011;64990;51.698;-0.292;2023-01-19T13:47:26;6.93;;;2.92;;
76208;SDS011;64990;51.698;-0.292;2023-01-19T13:49:55;9.48;;;3.70;;
76208;SDS011;64990;51.698;-0.292;2023-01-19T13:54:58;7.40;;;3.38;;
76208;SDS011;64990;51.698;-0.292;2023-01-19T14:00:01;6.78;;;2.67;;
76208;SDS011;64990;51.698;-0.292;2023-01-19T14:02:28;9.23;;;4.55;;
76208;SDS011;64990;51.698;-0.292;2023-01-19T14:04:54;7.88;;;3.38;;
76208;SDS011;64990;51.698;-0.292;2023-01-19T14:07:21;10.05;;;4.00;;
76208;SDS011;64990;51.698;-0.292;2023-01-19T14:10:00;24.30;;;4.88;;
76208;SDS011;64990;51.698;-0.292;2023-01-19T14:12:26;27.17;;;2.90;;
76208;SDS011;64990;51.698;-0.292;2023-01-19T14:14:52;20.70;;;3.40;;
76208;SDS011;64990;51.698;-0.292;2023-01-19T14:17:23;10.20;;;3.22;;
76208;SDS011;64990;51.698;-0.292;2023-01-19T14:19:50;5.80;;;2.42;;
76208;SDS011;64990;51.698;-0.292;2023-01-19T14:22:16;35.70;;;2.97;;
76208;SDS011;64990;51.698;-0.292;2023-01-19T14:24:42;6.63;;;2.97;;
76208;SDS011;64990;51.698;-0.292;2023-01-19T14:29:43;10.13;;;3.30;;
76208;SDS011;64990;51.698;-0.292;2023-01-19T14:32:12;4.97;;;2.50;;
76208;SDS011;64990;51.698;-0.292;2023-01-19T14:34:46;11.88;;;3.05;;
76208;SDS011;64990;51.698;-0.292;2023-01-19T14:37:14;7.97;;;2.88;;
76208;SDS011;64990;51.698;-0.292;2023-01-19T14:40:23;12.73;;;3.15;;
76208;SDS011;64990;51.698;-0.292;2023-01-19T14:43:14;12.25;;;2.97;;
76208;SDS011;64990;51.698;-0.292;2023-01-19T14:45:22;12.23;;;3.85;;
76208;SDS011;64990;51.698;-0.292;2023-01-19T14:50:46;4.85;;;2.30;;
76208;SDS011;64990;51.698;-0.292;2023-01-19T14:53:19;5.80;;;2.85;;
76208;SDS011;64990;51.698;-0.292;2023-01-19T14:55:53;9.23;;;2.22;;
76208;SDS011;64990;51.698;-0.292;2023-01-19T14:58:21;11.80;;;2.97;;
76208;SDS011;64990;51.698;-0.292;2023-01-19T15:00:47;7.38;;;2.63;;
76208;SDS011;64990;51.698;-0.292;2023-01-19T15:03:13;7.35;;;2.33;;
76208;SDS011;64990;51.698;-0.292;2023-01-19T15:05:43;10.73;;;3.00;;
76208;SDS011;64990;51.698;-0.292;2023-01-19T15:08:11;13.95;;;4.20;;
76208;SDS011;64990;51.698;-0.292;2023-01-19T15:10:39;13.43;;;2.80;;
76208;SDS011;64990;51.698;-0.292;2023-01-19T15:13:05;6.00;;;2.45;;
76208;SDS011;64990;51.698;-0.292;2023-01-19T15:15:32;6.75;;;3.22;;
76208;SDS011;64990;51.698;-0.292;2023-01-19T15:18:02;4.35;;;2.85;;
76208;SDS011;64990;51.698;-0.292;2023-01-19T15:20:28;7.50;;;2.50;;
76208;SDS011;64990;51.698;-0.292;2023-01-19T15:22:54;7.68;;;2.90;;
76208;SDS011;64990;51.698;-0.292;2023-01-19T15:25:21;7.18;;;2.55;;
76208;SDS011;64990;51.698;-0.292;2023-01-19T15:27:50;7.72;;;2.65;;
76208;SDS011;64990;51.698;-0.292;2023-01-19T15:32:42;5.40;;;3.10;;
76208;SDS011;64990;51.698;-0.292;2023-01-19T15:35:12;11.32;;;3.13;;
76208;SDS011;64990;51.698;-0.292;2023-01-19T15:37:39;10.90;;;3.13;;
76208;SDS011;64990;51.698;-0.292;2023-01-19T15:40:05;7.85;;;2.28;;
76208;SDS011;64990;51.698;-0.292;2023-01-19T15:42:31;9.43;;;2.47;;
76208;SDS011;64990;51.698;-0.292;2023-01-19T15:44:57;11.30;;;2.92;;
76208;SDS011;64990;51.698;-0.292;2023-01-19T15:47:24;5.40;;;2.00;;
76208;SDS011;64990;51.698;-0.292;2023-01-19T15:49:50;7.40;;;2.45;;
76208;SDS011;64990;51.698;-0.292;2023-01-19T15:52:16;6.78;;;3.22;;
76208;SDS011;64990;51.698;-0.292;2023-01-19T15:54:42;8.45;;;2.13;;
76208;SDS011;64990;51.698;-0.292;2023-01-19T15:57:09;7.78;;;2.50;;
76208;SDS011;64990;51.698;-0.292;2023-01-19T15:59:35;6.57;;;2.72;;